ePrivacy and GPDR Cookie Consent by Cookie Consent
EmailTwitter


Observations de surface / Québec / CYUL (71627)

Régions: Québec | Canada | États-Unis | Europe | France | UK | Ailleurs
Station
Affichage
Infos & localisation pour CYUL (71627) | Aide pour décoder les METARs

Observations prises le 2021-10-22 à 21H00 UTC à MONTREAL INTL A, QB (CYUL)

Etat du ciel: couvert.

Température: 7.0 Celsius

Point de rosée: 2.0 Celsius

Humidité relative: 70%

Facteur vent 3.

Vents: Sud-ouest à 22 km/h ou 12 noeuds.

Pression au niveau moyen de la mer: 101.43 kilopascals.

Calage altimétrique: 101.42 kilopascals ou 29.95 pouces de mercure.

Visibilité horizontale: 15.00 milles terrestres ou 24.00 kilomètres.

Hauteur du plafond: 914 mètres ( 3000 pieds ).

Observation METAR:

CYUL 222100Z 24012KT 15SM OVC030 07/02 A2995 RMK SC8 SLP143=